createdAt,value
2023-04-02T00:00:10.378Z,3.62
2023-04-02T00:03:15.411Z,3.08
2023-04-02T00:06:30.427Z,2.20
2023-04-02T00:09:37.130Z,1.75
2023-04-02T00:12:39.650Z,3.20
2023-04-02T00:15:46.791Z,2.37
2023-04-02T00:18:53.219Z,2.37
2023-04-02T00:21:57.403Z,3.97
2023-04-02T00:25:02.658Z,2.67
2023-04-02T00:28:05.000Z,2.97
2023-04-02T00:31:10.585Z,3.35
2023-04-02T00:34:28.048Z,2.05
2023-04-02T00:37:39.132Z,1.73
2023-04-02T00:40:42.451Z,2.47
2023-04-02T00:43:57.849Z,3.10
2023-04-02T00:47:12.106Z,2.67
2023-04-02T00:50:15.542Z,1.55
2023-04-02T00:53:25.843Z,2.62
2023-04-02T00:56:33.268Z,1.95
2023-04-02T00:59:43.231Z,2.78
2023-04-02T01:03:13.145Z,1.80
2023-04-02T01:06:18.804Z,1.65
2023-04-02T01:09:53.203Z,1.75
2023-04-02T01:16:22.830Z,3.28
2023-04-02T01:20:08.001Z,4.95
2023-04-02T01:23:13.450Z,4.18
2023-04-02T01:26:45.799Z,2.67
2023-04-02T01:30:01.425Z,2.78
2023-04-02T01:33:05.668Z,2.97
2023-04-02T01:36:24.055Z,2.12
2023-04-02T01:39:45.368Z,1.60
2023-04-02T01:43:29.574Z,2.22
2023-04-02T01:46:34.482Z,1.10
2023-04-02T01:49:36.999Z,2.85
2023-04-02T01:52:45.123Z,2.70
2023-04-02T01:55:54.874Z,1.15
2023-04-02T01:58:59.236Z,3.22
2023-04-02T02:02:05.948Z,3.00
2023-04-02T02:05:19.185Z,2.55
2023-04-02T02:08:39.317Z,1.87
2023-04-02T02:11:42.540Z,1.85
2023-04-02T02:14:52.391Z,3.00
2023-04-02T02:18:00.954Z,1.77
2023-04-02T02:21:07.810Z,2.58
2023-04-02T02:24:20.848Z,2.17
2023-04-02T02:27:23.121Z,3.08
2023-04-02T02:30:44.784Z,2.22
2023-04-02T02:33:53.084Z,2.60
2023-04-02T02:37:02.576Z,2.05
2023-04-02T02:40:13.010Z,3.25
2023-04-02T02:43:17.450Z,3.00
2023-04-02T02:46:23.802Z,3.67
2023-04-02T02:49:31.609Z,2.35
2023-04-02T02:52:39.196Z,2.37
2023-04-02T02:55:43.066Z,2.85
2023-04-02T02:58:46.271Z,1.73
2023-04-02T03:01:49.703Z,1.85
2023-04-02T03:04:54.986Z,2.75
2023-04-02T03:07:59.406Z,3.05
2023-04-02T03:11:09.336Z,1.98
2023-04-02T03:14:24.066Z,3.22
2023-04-02T03:17:34.585Z,3.28
2023-04-02T03:20:48.340Z,3.33
2023-04-02T03:24:03.523Z,3.97
2023-04-02T03:27:29.112Z,1.87
2023-04-02T03:30:54.249Z,3.03
2023-04-02T03:34:02.006Z,2.47
2023-04-02T03:37:22.525Z,3.22
2023-04-02T03:40:31.822Z,1.17
2023-04-02T03:43:40.738Z,2.37
2023-04-02T03:46:57.426Z,2.40
2023-04-02T03:50:06.390Z,2.55
2023-04-02T03:53:09.443Z,2.65
2023-04-02T03:56:40.396Z,2.08
2023-04-02T03:59:59.137Z,2.20
2023-04-02T04:03:23.073Z,3.10
2023-04-02T04:06:29.871Z,4.00
2023-04-02T04:09:37.097Z,2.85
2023-04-02T04:12:44.383Z,1.60
2023-04-02T04:15:57.862Z,2.30
2023-04-02T04:19:07.064Z,2.15
2023-04-02T04:22:30.316Z,2.05
2023-04-02T04:25:34.371Z,2.12
2023-04-02T04:29:05.759Z,2.20
2023-04-02T04:32:34.109Z,2.35
2023-04-02T04:35:40.296Z,2.20
2023-04-02T04:38:55.266Z,3.75
2023-04-02T04:42:02.668Z,2.95
2023-04-02T04:45:28.815Z,4.47
2023-04-02T04:48:46.306Z,4.20
2023-04-02T04:51:54.863Z,3.28
2023-04-02T04:54:57.918Z,2.55
2023-04-02T04:58:33.704Z,2.80
2023-04-02T05:01:52.694Z,3.75
2023-04-02T05:04:57.315Z,2.00
2023-04-02T05:08:15.888Z,3.62
2023-04-02T05:11:32.225Z,4.30
2023-04-02T05:14:48.249Z,2.40
2023-04-02T05:17:59.782Z,2.08
2023-04-02T05:21:14.360Z,2.85
2023-04-02T05:24:33.395Z,4.22
2023-04-02T05:27:38.335Z,2.83
2023-04-02T05:30:49.255Z,2.45
2023-04-02T05:33:55.058Z,3.28
2023-04-02T05:36:58.644Z,3.97
2023-04-02T05:40:13.527Z,3.40
2023-04-02T05:43:19.820Z,4.10
2023-04-02T05:46:28.040Z,2.80
2023-04-02T05:49:46.022Z,3.20
2023-04-02T05:52:57.089Z,2.62
2023-04-02T05:56:18.795Z,3.12
2023-04-02T05:59:37.584Z,3.53
2023-04-02T06:02:45.477Z,2.62
2023-04-02T06:05:49.112Z,3.55
2023-04-02T06:09:00.845Z,2.53
2023-04-02T06:12:16.022Z,3.22
2023-04-02T06:15:22.195Z,3.70
2023-04-02T06:18:27.635Z,3.25
2023-04-02T06:21:29.979Z,4.85
2023-04-02T06:24:34.287Z,2.87
2023-04-02T06:27:41.928Z,4.53
2023-04-02T06:30:45.864Z,4.68
2023-04-02T06:33:52.273Z,2.85
2023-04-02T06:36:59.384Z,3.30
2023-04-02T06:40:05.591Z,3.60
2023-04-02T06:43:33.403Z,3.53
2023-04-02T06:46:49.930Z,4.60
2023-04-02T06:50:03.989Z,3.40
2023-04-02T06:53:11.951Z,2.97
2023-04-02T06:56:37.388Z,3.47
2023-04-02T06:59:39.972Z,3.53
2023-04-02T07:02:43.192Z,3.15
2023-04-02T07:05:46.082Z,4.28
2023-04-02T07:08:49.477Z,4.65
2023-04-02T07:14:55.092Z,4.43
2023-04-02T07:17:59.668Z,4.47
2023-04-02T07:21:02.631Z,2.90
2023-04-02T07:24:06.113Z,3.22
2023-04-02T07:27:11.033Z,4.20
2023-04-02T07:30:13.367Z,3.20
2023-04-02T07:33:18.137Z,4.12
2023-04-02T07:36:23.573Z,3.80
2023-04-02T07:39:26.328Z,4.30
2023-04-02T07:42:28.617Z,3.30
2023-04-02T07:45:31.525Z,4.28
2023-04-02T07:48:33.788Z,3.95
2023-04-02T07:51:37.067Z,4.93
2023-04-02T07:54:39.851Z,4.65
2023-04-02T07:57:51.756Z,4.55
2023-04-02T08:00:54.213Z,3.83
2023-04-02T08:03:57.904Z,5.67
2023-04-02T08:13:06.770Z,5.35
2023-04-02T08:16:09.694Z,4.87
2023-04-02T08:19:11.992Z,5.47
2023-04-02T08:22:14.635Z,3.53
2023-04-02T08:25:17.336Z,4.65
2023-04-02T08:28:21.305Z,4.07
2023-04-02T08:31:23.623Z,6.15
2023-04-02T08:34:26.366Z,5.43
2023-04-02T08:37:28.582Z,7.00
2023-04-02T08:40:38.935Z,8.05
2023-04-02T08:43:59.077Z,4.75
2023-04-02T08:47:05.160Z,5.95
2023-04-02T08:50:15.333Z,5.07
2023-04-02T08:53:23.078Z,5.72
2023-04-02T08:56:36.947Z,3.65
2023-04-02T08:59:41.665Z,4.65
2023-04-02T09:02:49.595Z,4.97
2023-04-02T09:05:53.229Z,7.60
2023-04-02T09:08:57.090Z,5.30
2023-04-02T09:12:04.514Z,4.60
2023-04-02T09:15:35.572Z,5.05
2023-04-02T09:18:39.479Z,5.00
2023-04-02T09:21:46.970Z,4.53
2023-04-02T09:24:57.870Z,4.80
2023-04-02T09:28:05.116Z,5.57
2023-04-02T09:31:22.307Z,7.12
2023-04-02T09:34:28.578Z,4.87
2023-04-02T09:37:31.095Z,5.45
2023-04-02T09:40:51.102Z,5.53
2023-04-02T09:44:12.859Z,7.30
2023-04-02T09:47:26.408Z,5.25
2023-04-02T09:50:32.488Z,5.68
2023-04-02T09:53:38.680Z,4.78
2023-04-02T09:57:04.609Z,4.93
2023-04-02T10:00:30.642Z,5.05
2023-04-02T10:03:35.028Z,5.43
2023-04-02T10:06:37.392Z,5.18
2023-04-02T10:09:40.024Z,5.67
2023-04-02T10:12:46.162Z,5.10
2023-04-02T10:16:04.164Z,5.72
2023-04-02T10:19:06.516Z,5.07
2023-04-02T10:22:32.528Z,5.97
2023-04-02T10:25:42.255Z,6.30
2023-04-02T10:28:53.278Z,5.53
2023-04-02T10:32:14.235Z,6.65
2023-04-02T10:35:29.024Z,5.10
2023-04-02T10:39:12.143Z,7.03
2023-04-02T10:42:33.250Z,5.27
2023-04-02T10:45:50.774Z,5.28
2023-04-02T10:48:59.842Z,5.90
2023-04-02T10:52:13.524Z,5.78
2023-04-02T10:55:25.444Z,6.12
2023-04-02T10:58:31.799Z,5.68
2023-04-02T11:01:35.359Z,5.53
2023-04-02T11:04:44.099Z,4.65
2023-04-02T11:08:13.632Z,6.40
2023-04-02T11:11:22.631Z,5.85
2023-04-02T11:14:32.803Z,5.60
2023-04-02T11:17:35.138Z,4.65
2023-04-02T11:20:57.574Z,5.85
2023-04-02T11:24:01.936Z,4.35
2023-04-02T11:27:10.491Z,6.22
2023-04-02T11:30:15.921Z,4.62
2023-04-02T11:33:44.766Z,4.12
2023-04-02T11:36:52.622Z,5.70
2023-04-02T11:39:58.220Z,5.60
2023-04-02T11:43:33.497Z,4.93
2023-04-02T11:46:40.293Z,5.05
2023-04-02T11:49:54.874Z,5.65
2023-04-02T11:53:15.855Z,5.80
2023-04-02T11:56:40.673Z,6.90
2023-04-02T11:59:50.686Z,4.32
2023-04-02T12:03:25.825Z,4.65
2023-04-02T12:06:59.923Z,4.70
2023-04-02T12:10:05.893Z,5.62
2023-04-02T12:13:19.500Z,4.72
2023-04-02T12:16:22.964Z,6.62
2023-04-02T12:19:26.619Z,5.65
2023-04-02T12:22:31.915Z,4.80
2023-04-02T12:25:40.360Z,4.30
2023-04-02T12:28:46.378Z,4.15
2023-04-02T12:31:49.015Z,4.10
2023-04-02T12:34:52.612Z,5.20
2023-04-02T12:37:55.373Z,3.92
2023-04-02T12:41:06.376Z,4.13
2023-04-02T12:44:17.377Z,4.82
2023-04-02T12:47:19.591Z,4.55
2023-04-02T12:50:22.958Z,4.15
2023-04-02T12:53:39.074Z,4.37
2023-04-02T12:56:41.635Z,4.60
2023-04-02T12:59:44.073Z,5.60
2023-04-02T13:02:50.380Z,6.15
2023-04-02T13:05:57.432Z,5.00
2023-04-02T13:09:02.118Z,4.15
2023-04-02T13:12:04.657Z,4.43
2023-04-02T13:15:37.076Z,4.75
2023-04-02T13:18:39.335Z,3.87
2023-04-02T13:21:41.951Z,5.05
2023-04-02T13:24:44.382Z,3.67
2023-04-02T13:27:46.994Z,4.28
2023-04-02T13:30:49.517Z,3.60
2023-04-02T13:33:52.037Z,4.72
2023-04-02T13:36:55.080Z,4.10
2023-04-02T13:42:59.812Z,4.68
2023-04-02T13:46:06.042Z,3.95
2023-04-02T13:49:10.478Z,4.65
2023-04-02T13:52:17.004Z,3.78
2023-04-02T13:55:23.049Z,4.10
2023-04-02T13:58:25.668Z,3.45
2023-04-02T14:01:27.975Z,2.85
2023-04-02T14:04:35.279Z,4.07
2023-04-02T14:07:58.092Z,4.00
2023-04-02T14:11:25.102Z,3.07
2023-04-02T14:15:01.469Z,3.45
2023-04-02T14:18:26.052Z,2.92
2023-04-02T14:21:34.227Z,4.68
2023-04-02T14:24:57.063Z,4.53
2023-04-02T14:28:10.364Z,3.78
2023-04-02T14:31:25.727Z,5.05
2023-04-02T14:34:33.832Z,4.40
2023-04-02T14:37:55.254Z,3.58
2023-04-02T14:41:04.680Z,4.85
2023-04-02T14:44:08.618Z,4.37
2023-04-02T14:50:28.005Z,6.72
2023-04-02T14:53:44.076Z,6.47
2023-04-02T14:56:54.506Z,5.07
2023-04-02T15:00:02.647Z,6.05
2023-04-02T15:03:12.371Z,4.95
2023-04-02T15:06:23.492Z,4.12
2023-04-02T15:09:35.607Z,6.80
2023-04-02T15:12:41.134Z,4.82
2023-04-02T15:15:54.249Z,4.60
2023-04-02T15:18:58.470Z,3.95
2023-04-02T15:22:14.266Z,4.40
2023-04-02T15:25:42.726Z,4.40
2023-04-02T15:29:31.552Z,3.80
2023-04-02T15:32:39.035Z,3.50
2023-04-02T15:35:51.140Z,5.00
2023-04-02T15:39:18.414Z,4.30
2023-04-02T15:42:28.560Z,6.72
2023-04-02T15:45:51.791Z,5.12
2023-04-02T15:49:03.165Z,6.40
2023-04-02T15:52:12.332Z,5.15
2023-04-02T15:55:34.593Z,5.70
2023-04-02T15:59:08.453Z,5.85
2023-04-02T16:02:23.169Z,8.38
2023-04-02T16:05:47.281Z,7.28
2023-04-02T16:08:57.047Z,7.47
2023-04-02T16:12:15.526Z,6.97
2023-04-02T16:15:25.825Z,6.40
2023-04-02T16:18:43.346Z,8.30
2023-04-02T16:21:58.734Z,6.30
2023-04-02T16:25:13.477Z,6.60
2023-04-02T16:28:28.276Z,6.18
2023-04-02T16:31:59.050Z,7.93
2023-04-02T16:35:42.805Z,7.90
2023-04-02T16:38:52.355Z,7.45
2023-04-02T16:42:24.327Z,10.07
2023-04-02T16:45:33.270Z,8.85
2023-04-02T16:48:41.038Z,8.57
2023-04-02T16:52:14.158Z,7.82
2023-04-02T16:55:41.042Z,7.12
2023-04-02T16:59:22.985Z,8.02
2023-04-02T17:02:54.683Z,7.97
2023-04-02T17:06:14.622Z,8.43
2023-04-02T17:09:28.189Z,7.07
2023-04-02T17:12:39.740Z,6.90
2023-04-02T17:15:45.824Z,7.65
2023-04-02T17:18:52.270Z,7.20
2023-04-02T17:21:59.386Z,11.35
2023-04-02T17:25:04.245Z,4.65
2023-04-02T17:28:12.521Z,3.40
2023-04-02T17:31:27.101Z,6.43
2023-04-02T17:34:29.554Z,4.00
2023-04-02T17:37:43.352Z,5.07
2023-04-02T17:40:55.746Z,4.65
2023-04-02T17:44:23.518Z,4.05
2023-04-02T17:47:38.692Z,4.05
2023-04-02T17:50:53.956Z,4.37
2023-04-02T17:54:06.859Z,3.83
2023-04-02T17:57:09.339Z,4.07
2023-04-02T18:00:35.263Z,3.97
2023-04-02T18:03:40.998Z,4.97
2023-04-02T18:06:46.044Z,4.30
2023-04-02T18:10:21.830Z,5.37
2023-04-02T18:13:55.287Z,5.22
2023-04-02T18:17:34.410Z,6.30
2023-04-02T18:21:06.906Z,6.37
2023-04-02T18:24:18.344Z,6.25
2023-04-02T18:27:35.048Z,6.07
2023-04-02T18:30:57.118Z,7.35
2023-04-02T18:34:04.533Z,6.93
2023-04-02T18:37:29.711Z,7.65
2023-04-02T18:40:50.000Z,9.18
2023-04-02T18:44:29.610Z,9.45
2023-04-02T18:47:47.196Z,8.20
2023-04-02T18:50:50.071Z,6.55
2023-04-02T18:54:25.281Z,7.82
2023-04-02T18:57:34.239Z,5.87
2023-04-02T19:00:41.666Z,8.50
2023-04-02T19:03:50.208Z,8.68
2023-04-02T19:07:02.714Z,7.50
2023-04-02T19:10:20.552Z,10.07
2023-04-02T19:13:22.779Z,9.35
2023-04-02T19:16:43.903Z,7.90
2023-04-02T19:20:06.475Z,7.90
2023-04-02T19:23:43.818Z,7.72
2023-04-02T19:27:07.569Z,8.63
2023-04-02T19:30:28.935Z,8.70
2023-04-02T19:33:39.745Z,9.65
2023-04-02T19:36:46.642Z,7.80
2023-04-02T19:40:16.786Z,7.03
2023-04-02T19:43:19.508Z,7.78
2023-04-02T19:46:23.602Z,8.93
2023-04-02T19:49:33.599Z,6.70
2023-04-02T19:52:36.357Z,9.82
2023-04-02T19:55:40.352Z,11.45
2023-04-02T19:58:42.578Z,6.80
2023-04-02T20:01:45.691Z,7.43
2023-04-02T20:04:48.169Z,6.87
2023-04-02T20:07:50.406Z,8.27
2023-04-02T20:10:52.969Z,9.75
2023-04-02T20:13:55.335Z,7.40
2023-04-02T20:16:57.963Z,11.30
2023-04-02T20:20:00.372Z,8.05
2023-04-02T20:23:02.951Z,8.18
2023-04-02T20:26:05.579Z,8.23
2023-04-02T20:29:08.136Z,8.25
2023-04-02T20:32:10.814Z,6.55
2023-04-02T20:35:13.316Z,7.07
2023-04-02T20:38:15.668Z,13.27
2023-04-02T20:41:19.122Z,8.45
2023-04-02T20:44:21.813Z,8.07
2023-04-02T20:47:24.474Z,8.95
2023-04-02T20:50:26.861Z,8.23
2023-04-02T20:53:31.027Z,7.65
2023-04-02T20:56:33.365Z,7.75
2023-04-02T20:59:35.885Z,10.45
2023-04-02T21:02:38.167Z,9.32
2023-04-02T21:05:45.948Z,8.38
2023-04-02T21:08:49.312Z,9.65
2023-04-02T21:14:58.130Z,5.65
2023-04-02T21:18:01.871Z,8.50
2023-04-02T21:21:05.820Z,6.70
2023-04-02T21:24:09.480Z,7.68
2023-04-02T21:27:12.443Z,7.05
2023-04-02T21:30:14.927Z,5.65
2023-04-02T21:33:17.139Z,7.35
2023-04-02T21:36:22.851Z,7.72
2023-04-02T21:39:25.300Z,6.45
2023-04-02T21:42:27.840Z,7.25
2023-04-02T21:45:30.153Z,6.78
2023-04-02T21:48:32.727Z,5.45
2023-04-02T21:51:36.604Z,8.52
2023-04-02T21:54:39.110Z,7.55
2023-04-02T21:57:41.369Z,7.62
2023-04-02T22:00:43.866Z,9.63
2023-04-02T22:03:46.586Z,7.93
2023-04-02T22:06:52.507Z,14.50
2023-04-02T22:09:54.989Z,7.93
2023-04-02T22:12:58.212Z,6.57
2023-04-02T22:16:03.616Z,6.68
2023-04-02T22:19:10.565Z,7.40
2023-04-02T22:22:13.012Z,6.28
2023-04-02T22:25:15.695Z,6.62
2023-04-02T22:28:18.234Z,9.05
2023-04-02T22:31:23.238Z,8.20
2023-04-02T22:34:25.816Z,8.23
2023-04-02T22:37:28.974Z,7.68
2023-04-02T22:40:31.517Z,6.32
2023-04-02T22:43:34.604Z,9.38
2023-04-02T22:46:37.268Z,7.53
2023-04-02T22:49:39.622Z,8.52
2023-04-02T22:52:42.703Z,8.77
2023-04-02T22:55:45.161Z,9.27
2023-04-02T22:58:48.386Z,7.67
2023-04-02T23:01:50.608Z,7.53
2023-04-02T23:04:53.195Z,8.65
2023-04-02T23:07:55.472Z,8.32
2023-04-02T23:11:16.400Z,9.00
2023-04-02T23:14:18.655Z,9.88
2023-04-02T23:17:21.197Z,10.90
2023-04-02T23:20:23.396Z,8.80
2023-04-02T23:23:26.120Z,9.18
2023-04-02T23:26:31.150Z,8.00
2023-04-02T23:29:33.710Z,7.82
2023-04-02T23:32:36.137Z,9.98
2023-04-02T23:35:38.816Z,9.47
2023-04-02T23:38:41.250Z,8.77
2023-04-02T23:41:43.742Z,10.10
2023-04-02T23:44:46.057Z,7.72
2023-04-02T23:47:48.566Z,10.13
2023-04-02T23:50:50.787Z,9.52
2023-04-02T23:53:55.416Z,8.32
2023-04-02T23:56:57.615Z,9.10
